Time;durP1;ratioP1;P1;durP2;ratioP2;P2;SDS_P1;SDS_P2;PMS_P1;PMS_P2;Temp;Humidity;BMP_temperature;BMP_pressure;BME280_temperature;BME280_humidity;BME280_pressure;Samples;Min_cycle;Max_cycle;Signal;HPM_P1;HPM_P2
2021/01/11 00:01:39;;;;;;;3.53;2.75;;;13.00;99.90;;;;;;4694433;30;20055;-86
2021/01/11 00:04:06;;;;;;;4.20;2.30;;;12.90;99.90;;;;;;4699058;30;20079;-87
2021/01/11 00:06:42;;;;;;;3.28;2.20;;;12.90;99.90;;;;;;4697509;30;20133;-86
2021/01/11 00:09:09;;;;;;;4.13;2.45;;;12.90;99.90;;;;;;4712633;30;20042;-87
2021/01/11 00:11:35;;;;;;;4.00;2.83;;;12.90;99.90;;;;;;4698196;30;20045;-87
2021/01/11 00:14:03;;;;;;;7.60;3.15;;;13.00;99.90;;;;;;4697270;30;20033;-86
2021/01/11 00:16:29;;;;;;;4.10;2.83;;;13.00;99.90;;;;;;4712417;30;20064;-85
2021/01/11 00:18:57;;;;;;;4.35;2.45;;;13.00;99.90;;;;;;4703482;30;20049;-85
2021/01/11 00:21:24;;;;;;;6.45;3.35;;;13.10;99.90;;;;;;4699052;30;20045;-86
2021/01/11 00:23:50;;;;;;;3.92;3.03;;;13.20;99.90;;;;;;4697932;30;20037;-86
2021/01/11 00:26:16;;;;;;;5.70;3.10;;;13.10;99.90;;;;;;4697600;30;20053;-86
2021/01/11 00:28:43;;;;;;;6.32;2.63;;;13.10;99.90;;;;;;4696734;30;20036;-84
2021/01/11 00:31:10;;;;;;;5.20;3.20;;;13.10;99.90;;;;;;4697620;30;20033;-84
2021/01/11 00:33:36;;;;;;;6.13;3.00;;;13.20;99.90;;;;;;4682048;30;20091;-85
2021/01/11 00:36:10;;;;;;;4.63;2.50;;;13.20;99.90;;;;;;4704792;30;20124;-85
2021/01/11 00:38:37;;;;;;;5.88;2.92;;;13.10;99.90;;;;;;4701583;30;20029;-88
2021/01/11 00:41:03;;;;;;;14.75;3.47;;;13.10;99.90;;;;;;4701544;30;20061;-83
2021/01/11 00:43:29;;;;;;;4.57;2.95;;;13.10;99.90;;;;;;4716201;30;20072;-83
2021/01/11 00:45:55;;;;;;;7.97;3.60;;;13.10;99.90;;;;;;4715304;30;20503;-82
2021/01/11 00:48:21;;;;;;;5.38;2.17;;;13.20;99.90;;;;;;4711154;30;20451;-83
2021/01/11 00:50:47;;;;;;;3.30;2.40;;;13.20;99.90;;;;;;4715437;30;20510;-82
2021/01/11 00:53:14;;;;;;;6.47;2.67;;;13.20;99.90;;;;;;4701229;30;20051;-82
2021/01/11 00:55:40;;;;;;;4.50;2.78;;;13.30;99.90;;;;;;4700850;30;20031;-82
2021/01/11 00:58:12;;;;;;;5.88;3.70;;;13.30;99.90;;;;;;4714172;30;20044;-82
2021/01/11 01:00:44;;;;;;;7.78;5.55;;;13.30;99.90;;;;;;4707279;30;20080;-82
2021/01/11 01:03:17;;;;;;;6.25;4.50;;;13.30;99.90;;;;;;4711010;30;20092;-82
2021/01/11 01:05:43;;;;;;;4.85;3.40;;;13.30;99.90;;;;;;4697900;30;20103;-82
2021/01/11 01:08:09;;;;;;;4.07;2.83;;;13.30;99.90;;;;;;4697837;30;20083;-82
2021/01/11 01:10:36;;;;;;;5.85;2.40;;;13.30;99.90;;;;;;4694577;30;20057;-83
2021/01/11 01:13:02;;;;;;;6.55;3.45;;;13.30;99.90;;;;;;4698518;30;20084;-83
2021/01/11 01:15:28;;;;;;;4.30;2.80;;;13.30;99.90;;;;;;4679969;30;20054;-82
2021/01/11 01:17:54;;;;;;;7.88;3.50;;;13.30;99.90;;;;;;4666060;30;20060;-82
2021/01/11 01:20:20;;;;;;;7.03;2.70;;;13.30;99.90;;;;;;4694723;30;20045;-82
2021/01/11 01:22:47;;;;;;;5.53;2.05;;;13.20;99.90;;;;;;4712424;30;20041;-83
2021/01/11 01:25:14;;;;;;;4.18;2.00;;;13.20;99.90;;;;;;4698919;30;20030;-83
2021/01/11 01:27:41;;;;;;;4.75;2.63;;;13.20;99.90;;;;;;4697468;30;20052;-82
2021/01/11 01:30:09;;;;;;;5.15;2.90;;;13.20;99.90;;;;;;4700341;30;20804;-82
2021/01/11 01:32:36;;;;;;;3.10;2.30;;;13.20;99.90;;;;;;4702404;30;20033;-79
2021/01/11 01:35:03;;;;;;;4.57;2.60;;;13.20;99.90;;;;;;4691632;30;20041;-79
2021/01/11 01:37:29;;;;;;;4.95;2.60;;;13.20;99.90;;;;;;4695472;30;20041;-79
2021/01/11 01:39:55;;;;;;;4.53;2.08;;;13.10;99.90;;;;;;4705370;30;20040;-79
2021/01/11 01:42:21;;;;;;;3.20;1.88;;;13.00;99.90;;;;;;4696032;30;20044;-79
2021/01/11 01:44:47;;;;;;;5.88;1.90;;;12.90;99.90;;;;;;4695220;30;20041;-79
2021/01/11 01:47:14;;;;;;;5.32;2.42;;;12.80;99.90;;;;;;4688529;30;20065;-79
2021/01/11 01:49:40;;;;;;;3.83;2.30;;;12.60;99.90;;;;;;4694810;30;20494;-77
2021/01/11 01:52:08;;;;;;;4.38;2.78;;;12.60;99.90;;;;;;4690603;30;20033;-79
2021/01/11 01:54:40;;;;;;;4.88;2.53;;;12.50;99.90;;;;;;4696023;30;20048;-80
2021/01/11 01:57:08;;;;;;;3.85;2.42;;;12.40;99.90;;;;;;4693828;30;20053;-79
2021/01/11 01:59:34;;;;;;;3.72;2.33;;;12.40;99.90;;;;;;4695860;30;20092;-79
2021/01/11 02:02:03;;;;;;;7.07;2.80;;;12.30;99.90;;;;;;4694500;30;20041;-78
2021/01/11 02:04:29;;;;;;;7.13;1.90;;;12.20;99.90;;;;;;4708984;30;20029;-79
2021/01/11 02:07:03;;;;;;;3.88;1.73;;;12.20;99.90;;;;;;4696123;30;20568;-80
2021/01/11 02:09:57;;;;;;;5.60;1.63;;;12.10;99.90;;;;;;4695311;30;20041;-79
2021/01/11 02:12:34;;;;;;;4.65;1.85;;;12.10;99.90;;;;;;4695229;30;20033;-79
2021/01/11 02:15:10;;;;;;;2.97;1.50;;;12.00;99.90;;;;;;4694819;30;20041;-79
2021/01/11 02:18:00;;;;;;;4.10;1.58;;;11.90;99.90;;;;;;4694986;30;20041;-79
2021/01/11 02:20:52;;;;;;;6.20;1.75;;;11.80;99.90;;;;;;4696105;30;20044;-78
2021/01/11 02:23:56;;;;;;;3.80;1.30;;;11.60;99.90;;;;;;4696054;30;20053;-78
2021/01/11 02:26:47;;;;;;;3.50;1.30;;;11.50;99.90;;;;;;4684586;30;20678;-78
2021/01/11 02:29:27;;;;;;;7.43;2.05;;;11.40;99.90;;;;;;4695624;30;20029;-79
2021/01/11 02:31:57;;;;;;;6.40;2.03;;;11.30;99.90;;;;;;4696594;30;20037;-79
2021/01/11 02:34:25;;;;;;;3.97;1.83;;;11.30;99.90;;;;;;4695440;30;20057;-80
2021/01/11 02:36:53;;;;;;;5.13;1.80;;;11.30;99.90;;;;;;4693988;30;20044;-79
2021/01/11 02:39:19;;;;;;;5.10;1.80;;;11.30;99.90;;;;;;4693173;30;20026;-79
2021/01/11 02:41:45;;;;;;;3.97;1.80;;;11.20;99.90;;;;;;4695708;30;20042;-79
2021/01/11 06:28:03;;;;;;;7.03;4.35;;;10.20;99.90;;;;;;4636121;24;19933;-80
2021/01/11 06:30:37;;;;;;;11.00;5.10;;;10.20;99.90;;;;;;4724854;30;20529;-79
2021/01/11 06:33:07;;;;;;;10.63;4.78;;;10.20;99.90;;;;;;4715461;30;20052;-80
2021/01/11 06:35:44;;;;;;;8.00;4.60;;;10.20;99.90;;;;;;4721380;30;20075;-79
2021/01/11 06:38:18;;;;;;;10.07;4.22;;;10.20;99.90;;;;;;4721614;30;20040;-81
2021/01/11 06:41:12;;;;;;;8.95;4.30;;;10.20;99.90;;;;;;4722994;30;20047;-80
2021/01/11 06:43:38;;;;;;;12.27;4.63;;;10.20;99.90;;;;;;4738818;30;20033;-87
2021/01/11 06:46:06;;;;;;;5.57;3.75;;;10.20;99.90;;;;;;4721396;30;20498;-86
2021/01/11 06:48:33;;;;;;;7.53;4.20;;;10.20;99.90;;;;;;4707402;30;20133;-86
2021/01/11 06:51:07;;;;;;;9.85;4.38;;;10.20;99.90;;;;;;4711067;30;20040;-76
2021/01/11 06:53:49;;;;;;;7.15;4.28;;;10.20;99.90;;;;;;4720487;30;20025;-76
2021/01/11 06:56:32;;;;;;;10.70;4.03;;;10.20;99.90;;;;;;4716888;30;20498;-71
2021/01/11 06:59:06;;;;;;;13.27;4.32;;;10.10;99.90;;;;;;4716824;30;20036;-75
2021/01/11 07:01:37;;;;;;;11.50;4.43;;;10.10;99.90;;;;;;4717785;30;20054;-72
2021/01/11 07:04:06;;;;;;;10.57;4.68;;;10.20;99.90;;;;;;4715187;30;20044;-73
2021/01/11 07:06:34;;;;;;;10.23;4.55;;;10.20;99.90;;;;;;4716138;30;20041;-72
2021/01/11 07:09:14;;;;;;;12.73;4.85;;;10.20;99.90;;;;;;4715354;30;20033;-73
2021/01/11 07:11:48;;;;;;;12.93;4.35;;;10.20;99.90;;;;;;4713643;30;20048;-72
2021/01/11 07:14:22;;;;;;;15.60;4.15;;;10.20;99.90;;;;;;4715434;30;20404;-73
2021/01/11 07:16:53;;;;;;;8.43;3.70;;;10.30;99.90;;;;;;4716164;30;20134;-72
2021/01/11 07:19:21;;;;;;;11.10;4.45;;;10.30;99.90;;;;;;4718039;30;20037;-72
2021/01/11 07:21:48;;;;;;;29.23;6.28;;;10.30;99.90;;;;;;4716931;30;20057;-73
2021/01/11 07:24:15;;;;;;;11.95;3.97;;;10.30;99.90;;;;;;4718754;30;20037;-73
2021/01/11 07:26:41;;;;;;;5.68;3.25;;;10.30;99.90;;;;;;4722198;30;20108;-74
2021/01/11 07:29:09;;;;;;;8.40;4.35;;;10.40;99.90;;;;;;4717893;30;20052;-73
2021/01/11 07:31:40;;;;;;;15.52;4.18;;;10.30;99.90;;;;;;4722550;30;20036;-78
2021/01/11 07:34:11;;;;;;;5.72;3.38;;;10.30;99.90;;;;;;4723126;30;20112;-79
2021/01/11 07:36:46;;;;;;;5.28;3.40;;;10.40;99.90;;;;;;4720846;30;20508;-79
2021/01/11 07:39:28;;;;;;;17.65;4.78;;;10.40;99.90;;;;;;4710998;30;20495;-79
2021/01/11 07:41:57;;;;;;;21.27;4.80;;;10.30;99.90;;;;;;4728571;30;20041;-79
2021/01/11 07:44:23;;;;;;;6.85;2.65;;;10.40;99.90;;;;;;4710125;30;20032;-80
2021/01/11 07:47:13;;;;;;;6.13;3.75;;;10.40;99.90;;;;;;4724721;30;20119;-78
2021/01/11 07:49:40;;;;;;;11.85;3.60;;;10.40;99.90;;;;;;4717422;30;20037;-78
2021/01/11 07:52:12;;;;;;;9.00;3.20;;;10.50;99.90;;;;;;4727227;30;20089;-78
2021/01/11 07:54:39;;;;;;;27.40;7.65;;;10.50;99.90;;;;;;4724567;30;20430;-79
2021/01/11 07:57:12;;;;;;;8.73;3.45;;;10.50;99.90;;;;;;4721943;30;20041;-79
2021/01/11 07:59:40;;;;;;;11.27;3.85;;;10.50;99.90;;;;;;4720757;30;20052;-78
2021/01/11 08:02:15;;;;;;;11.13;3.75;;;10.50;99.90;;;;;;4721760;30;20048;-78
2021/01/11 08:04:42;;;;;;;6.93;3.60;;;10.60;99.90;;;;;;4724699;30;20041;-79
2021/01/11 08:07:13;;;;;;;6.47;2.80;;;10.50;99.90;;;;;;4710648;30;20032;-79
2021/01/11 08:09:41;;;;;;;13.07;3.30;;;10.60;99.90;;;;;;4722239;30;20040;-79
2021/01/11 08:12:12;;;;;;;17.35;4.18;;;10.60;99.90;;;;;;4722632;30;20409;-78
2021/01/11 08:14:42;;;;;;;11.05;3.80;;;10.70;99.90;;;;;;4728214;30;20037;-78
2021/01/11 08:17:19;;;;;;;15.52;4.20;;;10.70;99.90;;;;;;4722845;30;20228;-79
2021/01/11 08:19:53;;;;;;;6.72;3.42;;;10.70;99.90;;;;;;4726726;30;20112;-79
2021/01/11 08:22:21;;;;;;;8.75;2.90;;;10.70;99.90;;;;;;4722065;30;20604;-79
2021/01/11 08:24:51;;;;;;;8.75;3.15;;;10.80;99.90;;;;;;4723249;30;20036;-78
2021/01/11 08:27:43;;;;;;;5.57;2.35;;;10.90;99.90;;;;;;4724319;30;20119;-79
2021/01/11 08:30:11;;;;;;;22.50;4.45;;;11.00;99.90;;;;;;4704730;30;20418;-79
2021/01/11 08:32:41;;;;;;;9.48;3.47;;;11.00;99.90;;;;;;4722425;30;20108;-78
2021/01/11 08:35:08;;;;;;;12.75;3.67;;;11.10;99.90;;;;;;4726774;30;20033;-79
2021/01/11 08:37:35;;;;;;;11.05;2.90;;;11.20;99.90;;;;;;4727942;30;20029;-78
2021/01/11 08:40:04;;;;;;;6.43;2.40;;;11.30;99.90;;;;;;4727398;30;20037;-80
2021/01/11 08:42:31;;;;;;;8.05;2.90;;;11.30;99.90;;;;;;4723820;30;20077;-79
2021/01/11 08:45:28;;;;;;;11.30;3.28;;;11.40;99.90;;;;;;4723251;30;20036;-79
2021/01/11 08:48:14;;;;;;;6.95;2.17;;;11.40;99.90;;;;;;4742164;30;20171;-78
2021/01/11 08:50:56;;;;;;;7.70;2.17;;;11.40;99.90;;;;;;4720076;30;20060;-78
2021/01/11 08:53:37;;;;;;;6.78;2.25;;;11.40;99.90;;;;;;4724245;30;20036;-79
2021/01/11 08:56:08;;;;;;;5.45;2.60;;;11.40;99.90;;;;;;4722745;30;20044;-78
2021/01/11 08:58:48;;;;;;;5.13;2.67;;;11.30;99.90;;;;;;4724239;30;20090;-79
2021/01/11 09:01:18;;;;;;;15.77;3.15;;;11.30;99.90;;;;;;4715425;30;20045;-79
2021/01/11 09:03:50;;;;;;;5.70;2.38;;;11.30;99.90;;;;;;4739804;30;20441;-78
2021/01/11 09:06:42;;;;;;;6.55;2.78;;;11.30;99.90;;;;;;4721979;30;20047;-78
2021/01/11 09:09:19;;;;;;;6.38;2.38;;;11.30;99.90;;;;;;4724878;30;20025;-80
2021/01/11 09:11:48;;;;;;;12.93;3.00;;;11.40;99.90;;;;;;4722581;30;20029;-78
2021/01/11 09:14:20;;;;;;;6.75;2.33;;;11.40;99.90;;;;;;4720465;30;20025;-80
2021/01/11 09:16:54;;;;;;;4.20;2.08;;;11.50;99.90;;;;;;4720683;30;20036;-79
2021/01/11 09:19:21;;;;;;;16.25;3.65;;;11.60;99.90;;;;;;4724256;30;20083;-79
2021/01/11 09:22:02;;;;;;;9.27;2.47;;;11.70;99.90;;;;;;4720235;30;20040;-79
2021/01/11 09:24:28;;;;;;;6.55;2.05;;;11.70;99.90;;;;;;4722392;30;20056;-78
2021/01/11 09:26:55;;;;;;;11.05;2.42;;;11.70;99.90;;;;;;4723847;30;20047;-78
2021/01/11 09:29:22;;;;;;;7.05;1.98;;;11.80;99.90;;;;;;4707182;30;20041;-79
2021/01/11 09:31:49;;;;;;;11.27;2.88;;;11.80;99.90;;;;;;4721720;30;20102;-79
2021/01/11 09:34:16;;;;;;;7.28;2.30;;;11.80;99.90;;;;;;4723249;30;20128;-79
2021/01/11 09:36:44;;;;;;;5.70;2.22;;;11.90;99.90;;;;;;4725000;30;20083;-79
2021/01/11 09:39:13;;;;;;;7.43;2.28;;;11.90;99.90;;;;;;4724845;30;20032;-79
2021/01/11 09:41:49;;;;;;;11.02;3.00;;;11.90;99.90;;;;;;4720790;30;20106;-79
2021/01/11 09:44:16;;;;;;;8.73;2.05;;;12.00;99.90;;;;;;4720371;30;20434;-79
2021/01/11 09:46:51;;;;;;;4.95;2.38;;;12.00;99.90;;;;;;4718286;30;20200;-79
2021/01/11 09:49:18;;;;;;;8.80;2.58;;;12.00;99.90;;;;;;4728460;30;20041;-79
2021/01/11 09:51:44;;;;;;;5.22;2.22;;;12.10;99.90;;;;;;4714769;30;20041;-79
2021/01/11 09:54:10;;;;;;;5.43;2.00;;;12.10;99.90;;;;;;4721800;30;20474;-79
2021/01/11 09:56:40;;;;;;;7.68;2.15;;;12.10;99.90;;;;;;4723665;30;20219;-80
2021/01/11 09:59:07;;;;;;;4.88;1.80;;;12.00;99.90;;;;;;4726471;30;20067;-80
2021/01/11 10:01:47;;;;;;;7.55;2.88;;;12.00;99.90;;;;;;4710837;30;20502;-79
2021/01/11 10:04:17;;;;;;;11.90;2.90;;;12.00;99.90;;;;;;4728565;30;20071;-79
2021/01/11 10:06:51;;;;;;;8.90;3.05;;;12.00;99.90;;;;;;4721760;30;20126;-79
2021/01/11 10:09:19;;;;;;;6.25;2.10;;;12.10;99.90;;;;;;4720726;30;20538;-79
2021/01/11 10:11:51;;;;;;;10.00;3.45;;;12.10;99.90;;;;;;4718810;30;20666;-79
2021/01/11 10:14:18;;;;;;;7.80;1.92;;;12.10;99.90;;;;;;4715122;30;20050;-79
2021/01/11 10:16:45;;;;;;;4.93;2.38;;;12.10;99.90;;;;;;4724269;30;20044;-79
2021/01/11 10:19:16;;;;;;;8.80;2.65;;;12.10;99.90;;;;;;4722879;30;20029;-80
2021/01/11 10:21:42;;;;;;;3.50;1.85;;;12.10;99.90;;;;;;4722988;30;20148;-80
2021/01/11 10:24:10;;;;;;;5.45;2.55;;;12.20;99.90;;;;;;4722882;30;20114;-79
2021/01/11 10:26:39;;;;;;;4.43;2.20;;;12.10;99.90;;;;;;4720152;30;20090;-82
2021/01/11 10:29:08;;;;;;;8.07;1.85;;;12.10;99.90;;;;;;4716985;30;20049;-81
2021/01/11 10:31:35;;;;;;;8.10;2.30;;;12.00;99.90;;;;;;4723810;30;20080;-81
2021/01/11 10:34:02;;;;;;;6.63;3.17;;;12.00;99.90;;;;;;4719240;30;20029;-82
2021/01/11 10:36:29;;;;;;;4.15;2.13;;;12.00;99.90;;;;;;4708058;30;20037;-82
2021/01/11 10:38:55;;;;;;;5.47;2.85;;;12.00;99.90;;;;;;4705610;30;20040;-82
2021/01/11 10:41:21;;;;;;;6.82;3.00;;;12.10;99.90;;;;;;4710204;30;20053;-82
2021/01/11 10:43:49;;;;;;;9.32;2.92;;;12.20;99.90;;;;;;4717311;30;20032;-82
2021/01/11 10:46:16;;;;;;;15.65;3.25;;;12.20;99.90;;;;;;4726757;30;20111;-83
2021/01/11 10:48:44;;;;;;;2.25;1.92;;;12.30;99.90;;;;;;4726202;30;20032;-83
2021/01/11 10:51:11;;;;;;;8.20;2.20;;;12.40;99.90;;;;;;4726379;30;20398;-83
2021/01/11 10:53:43;;;;;;;10.38;2.60;;;12.60;99.90;;;;;;4721413;30;20040;-82
2021/01/11 10:56:11;;;;;;;7.63;2.63;;;12.70;99.90;;;;;;4720695;30;20048;-82
2021/01/11 10:58:37;;;;;;;10.32;2.17;;;12.70;99.90;;;;;;4721278;30;20036;-83
2021/01/11 11:01:07;;;;;;;6.45;2.55;;;12.70;99.90;;;;;;4723404;30;20040;-83
2021/01/11 11:03:34;;;;;;;3.47;1.55;;;12.70;99.90;;;;;;4720475;30;20039;-80
2021/01/11 11:06:00;;;;;;;3.67;1.58;;;12.50;99.90;;;;;;4719224;30;20032;-81
2021/01/11 11:08:26;;;;;;;6.13;2.30;;;12.30;99.90;;;;;;4723888;30;20044;-82
2021/01/11 11:10:52;;;;;;;35.95;4.65;;;12.20;99.90;;;;;;4708121;30;20078;-82
2021/01/11 11:13:19;;;;;;;13.80;3.38;;;12.20;99.90;;;;;;4708649;30;20482;-82
2021/01/11 11:15:46;;;;;;;11.15;3.72;;;12.30;99.90;;;;;;4705327;30;20507;-82
2021/01/11 11:18:12;;;;;;;6.43;1.92;;;12.20;99.90;;;;;;4712943;30;20040;-82
2021/01/11 11:20:40;;;;;;;9.75;2.45;;;12.30;99.90;;;;;;4721520;30;20113;-82
2021/01/11 11:23:07;;;;;;;9.30;2.95;;;12.30;99.90;;;;;;4722909;30;20040;-83
2021/01/11 11:25:33;;;;;;;7.85;2.20;;;12.40;99.90;;;;;;4722070;30;20040;-82
2021/01/11 11:27:59;;;;;;;13.05;3.63;;;12.40;99.90;;;;;;4720346;30;20048;-84
2021/01/11 11:30:25;;;;;;;12.68;3.33;;;12.40;99.90;;;;;;4718096;30;20056;-82
2021/01/11 11:32:52;;;;;;;4.93;2.28;;;12.50;99.90;;;;;;4707894;30;20099;-82
2021/01/11 11:35:20;;;;;;;13.10;3.22;;;12.50;99.90;;;;;;4720388;30;20036;-82
2021/01/11 11:37:47;;;;;;;6.95;3.13;;;12.40;99.90;;;;;;4706694;30;20191;-82
2021/01/11 11:40:14;;;;;;;4.05;2.10;;;12.40;99.90;;;;;;4728022;30;20071;-82
2021/01/11 11:42:41;;;;;;;5.10;1.98;;;12.30;99.90;;;;;;4706045;30;20402;-82
2021/01/11 11:45:12;;;;;;;9.50;2.80;;;12.30;99.90;;;;;;4721585;30;20087;-82
2021/01/11 11:47:39;;;;;;;11.82;2.47;;;12.30;99.90;;;;;;4702953;30;20067;-82
2021/01/11 11:50:08;;;;;;;13.05;3.55;;;12.30;99.90;;;;;;4720676;30;20029;-82
2021/01/11 11:52:35;;;;;;;9.80;2.15;;;12.30;99.90;;;;;;4721375;30;20449;-81
2021/01/11 11:55:02;;;;;;;15.10;2.50;;;12.40;99.90;;;;;;4707835;30;20470;-82
2021/01/11 11:57:29;;;;;;;8.35;3.33;;;12.40;99.90;;;;;;4722196;30;20049;-82
2021/01/11 11:59:55;;;;;;;8.35;2.70;;;12.30;99.90;;;;;;4720579;30;20458;-82
2021/01/11 12:02:21;;;;;;;10.98;3.30;;;12.40;99.90;;;;;;4728158;30;20386;-82
2021/01/11 12:04:47;;;;;;;10.80;3.28;;;12.40;99.90;;;;;;4705285;30;20107;-82
2021/01/11 12:07:14;;;;;;;10.48;3.20;;;12.30;99.90;;;;;;4722931;30;20043;-81
2021/01/11 12:09:42;;;;;;;8.20;2.80;;;12.40;99.90;;;;;;4717206;30;20098;-82
2021/01/11 12:12:08;;;;;;;8.18;3.03;;;12.40;99.90;;;;;;4720660;30;20107;-83
2021/01/11 12:14:34;;;;;;;11.43;2.50;;;12.50;99.90;;;;;;4740772;30;21224;-87
2021/01/11 12:17:04;;;;;;;16.70;2.60;;;12.60;99.90;;;;;;4724445;30;20029;-88
2021/01/11 12:19:31;;;;;;;21.52;4.93;;;12.70;99.90;;;;;;4726139;30;20049;-82
2021/01/11 12:21:57;;;;;;;7.78;2.38;;;12.80;99.90;;;;;;4705806;30;20055;-79
2021/01/11 12:24:23;;;;;;;8.52;2.90;;;12.50;99.90;;;;;;4719095;30;20033;-80
2021/01/11 12:26:49;;;;;;;25.27;5.43;;;12.40;99.90;;;;;;4721264;30;20040;-81
2021/01/11 12:29:17;;;;;;;4.53;2.20;;;12.40;99.90;;;;;;4729816;30;20075;-79
2021/01/11 12:31:44;;;;;;;8.05;2.63;;;12.40;99.90;;;;;;4721019;30;20114;-79
2021/01/11 12:34:11;;;;;;;11.93;3.00;;;12.30;99.90;;;;;;4743558;30;20040;-79
2021/01/11 12:36:38;;;;;;;7.55;3.22;;;12.40;99.90;;;;;;4722577;30;20049;-80
2021/01/11 12:39:08;;;;;;;7.47;3.40;;;12.40;99.90;;;;;;4727252;30;20482;-80
2021/01/11 12:41:35;;;;;;;13.02;3.97;;;12.50;99.90;;;;;;4722310;30;20045;-80
2021/01/11 12:44:01;;;;;;;10.73;3.40;;;12.50;99.90;;;;;;4723865;30;20063;-79
2021/01/11 12:46:27;;;;;;;9.63;2.90;;;12.40;99.90;;;;;;4720927;30;20462;-79
2021/01/11 12:48:53;;;;;;;4.47;2.30;;;12.40;99.90;;;;;;4723451;30;20094;-80
2021/01/11 12:51:22;;;;;;;4.47;2.50;;;12.40;99.90;;;;;;4724323;30;20040;-79
2021/01/11 12:53:50;;;;;;;9.18;3.05;;;12.40;99.90;;;;;;4726355;30;20040;-80
2021/01/11 12:56:20;;;;;;;9.02;3.53;;;12.30;99.90;;;;;;4725382;30;20047;-79
2021/01/11 12:58:48;;;;;;;4.63;2.53;;;12.30;99.90;;;;;;4726290;30;20115;-78
2021/01/11 13:01:22;;;;;;;5.60;2.78;;;12.30;99.90;;;;;;4722764;30;20048;-80
2021/01/11 13:03:49;;;;;;;13.30;2.88;;;12.20;99.90;;;;;;4720360;30;20483;-79
2021/01/11 13:06:19;;;;;;;10.85;3.17;;;12.30;99.90;;;;;;4722574;30;20037;-80
2021/01/11 13:08:45;;;;;;;5.85;2.53;;;12.30;99.90;;;;;;4727008;30;20029;-80
2021/01/11 13:11:19;;;;;;;24.90;11.15;;;12.30;99.90;;;;;;4726979;30;20063;-80
2021/01/11 13:13:50;;;;;;;12.82;7.10;;;12.20;99.90;;;;;;4723255;30;20033;-96
2021/01/11 13:16:36;;;;;;;18.92;8.48;;;12.30;99.90;;;;;;4708995;30;20048;-88
2021/01/11 13:19:07;;;;;;;23.55;6.57;;;12.40;99.90;;;;;;4724163;30;20033;-92
2021/01/11 13:21:34;;;;;;;12.73;6.43;;;12.40;99.90;;;;;;4718715;30;20052;-81
2021/01/11 13:24:01;;;;;;;13.60;3.85;;;12.40;99.90;;;;;;4720355;30;20036;-81
2021/01/11 13:26:35;;;;;;;10.77;3.92;;;12.40;99.90;;;;;;4715938;30;20044;-83
2021/01/11 13:29:06;;;;;;;5.50;3.42;;;12.40;99.90;;;;;;4718138;30;20110;-81
2021/01/11 13:31:32;;;;;;;9.15;5.32;;;12.40;99.90;;;;;;4725276;30;21185;-81
2021/01/11 13:34:00;;;;;;;11.00;3.20;;;12.50;99.90;;;;;;4713496;30;20049;-81
2021/01/11 13:36:29;;;;;;;11.85;4.45;;;12.60;99.90;;;;;;4723717;30;20037;-81
2021/01/11 13:38:56;;;;;;;8.77;3.00;;;12.70;99.90;;;;;;4722968;30;20446;-81
2021/01/11 13:41:40;;;;;;;12.27;4.53;;;12.60;99.90;;;;;;4723416;30;20123;-80
2021/01/11 13:44:10;;;;;;;6.75;2.45;;;12.70;99.90;;;;;;4720320;30;20041;-81
2021/01/11 13:46:40;;;;;;;5.10;2.45;;;12.90;99.90;;;;;;4723131;30;20039;-80
2021/01/11 13:49:07;;;;;;;8.40;3.78;;;12.70;99.90;;;;;;4715725;30;20134;-80
2021/01/11 13:51:33;;;;;;;6.57;3.97;;;12.50;99.90;;;;;;4723331;30;20167;-81
2021/01/11 13:54:01;;;;;;;12.55;5.40;;;12.40;99.90;;;;;;4725100;30;20037;-81
2021/01/11 13:56:29;;;;;;;12.38;3.33;;;12.50;99.90;;;;;;4722162;30;20028;-81
2021/01/11 13:58:56;;;;;;;6.10;2.85;;;12.60;99.90;;;;;;4725090;30;20037;-81
2021/01/11 14:01:26;;;;;;;4.63;3.42;;;12.70;99.90;;;;;;4723801;30;20048;-81
2021/01/11 14:03:53;;;;;;;11.35;4.18;;;12.70;99.90;;;;;;4727021;30;20033;-82
2021/01/11 14:06:27;;;;;;;7.53;2.42;;;12.70;99.90;;;;;;4723144;30;20041;-82
2021/01/11 14:08:54;;;;;;;7.70;2.53;;;12.90;99.90;;;;;;4717757;30;20041;-81
2021/01/11 14:11:21;;;;;;;14.20;2.90;;;12.90;99.90;;;;;;4720834;30;20047;-82
2021/01/11 14:13:48;;;;;;;6.22;3.70;;;12.90;99.90;;;;;;4722179;30;20499;-81
2021/01/11 14:16:15;;;;;;;10.00;4.90;;;12.80;99.90;;;;;;4722648;30;20127;-81
2021/01/11 14:18:41;;;;;;;9.43;5.20;;;12.80;99.90;;;;;;4728063;30;20033;-81
2021/01/11 14:21:18;;;;;;;9.50;5.38;;;12.70;99.90;;;;;;4723473;30;20099;-81
2021/01/11 14:23:44;;;;;;;16.55;6.85;;;12.70;99.90;;;;;;4720269;30;20502;-80
2021/01/11 14:26:13;;;;;;;11.13;6.00;;;12.70;99.90;;;;;;4718760;30;20133;-81
2021/01/11 14:28:40;;;;;;;9.95;7.43;;;12.70;99.90;;;;;;4724092;30;20502;-80
2021/01/11 14:31:07;;;;;;;15.50;7.18;;;12.70;99.90;;;;;;4724106;30;20060;-81
2021/01/11 14:33:34;;;;;;;5.55;3.13;;;12.70;99.90;;;;;;4724598;30;20033;-80
2021/01/11 14:36:01;;;;;;;9.88;7.20;;;12.70;99.90;;;;;;4720778;30;20035;-81
2021/01/11 14:38:27;;;;;;;4.47;2.88;;;12.70;99.90;;;;;;4722912;30;20391;-81
2021/01/11 14:40:53;;;;;;;5.82;2.75;;;12.60;99.90;;;;;;4722140;30;20520;-81
2021/01/11 14:43:19;;;;;;;4.55;2.20;;;12.50;99.90;;;;;;4724341;30;20044;-81
2021/01/11 14:45:46;;;;;;;4.40;1.92;;;12.50;99.90;;;;;;4719361;30;20033;-81
2021/01/11 14:48:12;;;;;;;4.72;2.65;;;12.50;99.90;;;;;;4722220;30;20056;-82
2021/01/11 14:50:41;;;;;;;3.28;1.52;;;12.40;99.90;;;;;;4722121;30;20490;-81
2021/01/11 14:53:11;;;;;;;4.25;2.17;;;12.50;99.90;;;;;;4713819;30;20106;-81
2021/01/11 14:55:38;;;;;;;12.13;3.10;;;12.40;99.90;;;;;;4742851;30;20127;-81
2021/01/11 14:58:04;;;;;;;3.60;1.98;;;12.40;99.90;;;;;;4735198;30;20055;-80
2021/01/11 15:00:30;;;;;;;4.45;1.90;;;12.40;99.90;;;;;;4726474;30;20153;-81
2021/01/11 15:02:57;;;;;;;5.00;2.92;;;12.30;99.90;;;;;;4720595;30;20139;-82
2021/01/11 15:05:22;;;;;;;2.55;1.88;;;12.20;99.90;;;;;;4704081;30;20119;-80
2021/01/11 15:07:49;;;;;;;2.83;1.58;;;12.20;99.90;;;;;;4715600;30;20064;-81
2021/01/11 15:10:16;;;;;;;6.10;3.50;;;12.20;99.90;;;;;;4719978;30;20036;-81
2021/01/11 15:12:43;;;;;;;6.45;2.38;;;12.10;99.90;;;;;;4724400;30;20037;-82
2021/01/11 15:15:10;;;;;;;6.05;2.22;;;12.20;99.90;;;;;;4722049;30;20032;-81
2021/01/11 15:17:40;;;;;;;3.03;2.00;;;12.20;99.90;;;;;;4730512;30;20511;-82
2021/01/11 15:20:08;;;;;;;4.25;2.00;;;12.10;99.90;;;;;;4729247;30;20917;-81
2021/01/11 15:22:34;;;;;;;3.70;2.05;;;12.00;99.90;;;;;;4729157;30;20077;-81
2021/01/11 15:25:01;;;;;;;4.78;3.55;;;12.00;99.90;;;;;;4728751;30;20052;-81
2021/01/11 15:27:27;;;;;;;5.35;2.40;;;12.00;99.90;;;;;;4730845;30;20048;-82
2021/01/11 15:29:53;;;;;;;3.05;1.50;;;12.00;99.90;;;;;;4729296;30;20456;-81
2021/01/11 15:32:19;;;;;;;5.00;2.55;;;12.00;99.90;;;;;;4725128;30;20386;-82
2021/01/11 15:34:45;;;;;;;4.70;2.42;;;11.90;99.90;;;;;;4732274;30;20140;-81
2021/01/11 15:37:11;;;;;;;4.65;2.20;;;11.90;99.90;;;;;;4727236;30;20120;-82
2021/01/11 15:39:37;;;;;;;5.97;2.22;;;11.90;99.90;;;;;;4727135;30;20040;-82
2021/01/11 15:42:07;;;;;;;3.40;2.03;;;12.00;99.90;;;;;;4735851;30;20101;-81
2021/01/11 15:44:33;;;;;;;6.00;1.98;;;12.00;99.90;;;;;;4732689;30;20032;-82
2021/01/11 15:46:59;;;;;;;10.80;5.85;;;12.10;99.90;;;;;;4710421;30;20501;-80
2021/01/11 15:49:25;;;;;;;4.95;2.40;;;12.00;99.90;;;;;;4721993;30;20045;-80
2021/01/11 15:51:51;;;;;;;7.05;4.40;;;11.90;99.90;;;;;;4724409;30;20083;-81
2021/01/11 15:54:18;;;;;;;4.90;2.53;;;11.80;99.90;;;;;;4724248;30;20037;-80
2021/01/11 15:56:47;;;;;;;12.50;4.30;;;11.70;99.90;;;;;;4721355;30;20806;-81
2021/01/11 15:59:17;;;;;;;20.05;11.20;;;11.70;99.90;;;;;;4719124;30;20048;-80
2021/01/11 16:01:44;;;;;;;7.50;4.57;;;11.60;99.90;;;;;;4722667;30;20045;-81
2021/01/11 16:04:10;;;;;;;7.00;3.33;;;11.60;99.90;;;;;;4727577;30;20491;-81
2021/01/11 16:06:43;;;;;;;43.65;4.95;;;11.50;99.90;;;;;;4725938;30;20094;-81
2021/01/11 16:09:10;;;;;;;6.07;3.33;;;11.50;99.90;;;;;;4742792;30;20080;-81
2021/01/11 16:11:38;;;;;;;6.28;3.70;;;11.50;99.90;;;;;;4725420;30;20107;-81
2021/01/11 16:14:04;;;;;;;6.32;4.18;;;11.50;99.90;;;;;;4729786;30;20045;-81
2021/01/11 16:16:30;;;;;;;5.40;3.75;;;11.60;99.90;;;;;;4726434;30;20163;-80
2021/01/11 16:18:57;;;;;;;7.95;4.00;;;11.60;99.90;;;;;;4705884;30;20071;-82
2021/01/11 16:21:23;;;;;;;10.02;6.00;;;11.60;99.90;;;;;;4724173;30;20063;-81
2021/01/11 16:23:50;;;;;;;7.75;5.13;;;11.60;99.90;;;;;;4722237;30;20071;-81
2021/01/11 16:26:25;;;;;;;7.57;3.75;;;11.60;99.90;;;;;;4724251;30;20029;-80
2021/01/11 16:28:58;;;;;;;8.88;4.57;;;11.50;99.90;;;;;;4723127;30;20094;-80
2021/01/11 16:31:31;;;;;;;9.38;4.07;;;11.50;99.90;;;;;;4725409;30;20479;-80
2021/01/11 16:33:59;;;;;;;7.28;3.78;;;11.60;99.90;;;;;;4727666;30;20501;-81
2021/01/11 16:36:27;;;;;;;16.30;3.80;;;11.60;99.90;;;;;;4720666;30;20037;-80
2021/01/11 16:38:54;;;;;;;4.93;2.88;;;11.60;99.90;;;;;;4724911;30;20039;-79